Time;durP1;ratioP1;P1;durP2;ratioP2;P2;SDS_P1;SDS_P2;PMS_P1;PMS_P2;Temp;Humidity;BMP_temperature;BMP_pressure;BME280_temperature;BME280_humidity;BME280_pressure;Samples;Min_cycle;Max_cycle;Signal;HPM_P1;HPM_P2
2020/12/08 00:00:59;;;;;;;13.05;8.25;;;3.60;93.10;;;;;;2054968;28;20093;-80
2020/12/08 00:01:59;;;;;;;12.63;8.52;;;3.60;93.20;;;;;;2060862;28;20031;-80
2020/12/08 00:03:00;;;;;;;13.85;8.52;;;3.60;93.20;;;;;;2056407;28;20046;-80
2020/12/08 00:04:01;;;;;;;13.05;8.13;;;3.60;93.20;;;;;;2060585;28;20359;-81
2020/12/08 00:05:03;;;;;;;12.93;8.20;;;3.60;93.20;;;;;;2057893;28;20389;-81
2020/12/08 00:06:04;;;;;;;12.45;7.50;;;3.60;93.20;;;;;;2063888;28;20022;-81
2020/12/08 00:07:05;;;;;;;12.82;7.82;;;3.60;93.20;;;;;;2059465;28;20061;-80
2020/12/08 00:08:07;;;;;;;11.95;7.68;;;3.60;93.10;;;;;;2049813;28;20034;-81
2020/12/08 00:09:07;;;;;;;12.80;8.05;;;3.60;93.20;;;;;;2058662;28;20042;-80
2020/12/08 00:10:08;;;;;;;12.32;8.05;;;3.60;93.20;;;;;;2056260;28;20430;-81
2020/12/08 00:11:14;;;;;;;12.38;8.18;;;3.70;93.20;;;;;;2054909;28;20061;-80
2020/12/08 00:12:15;;;;;;;11.98;7.78;;;3.70;93.20;;;;;;2061809;28;20397;-81
2020/12/08 00:13:15;;;;;;;13.57;8.35;;;3.70;93.10;;;;;;2056783;28;20042;-81
2020/12/08 00:14:16;;;;;;;11.77;7.60;;;3.70;93.10;;;;;;2050546;28;20023;-81
2020/12/08 00:15:17;;;;;;;10.50;6.93;;;3.70;93.10;;;;;;2060529;28;20054;-81
2020/12/08 00:16:18;;;;;;;12.40;7.85;;;3.70;93.10;;;;;;2057292;28;20335;-80
2020/12/08 00:17:19;;;;;;;12.45;7.50;;;3.70;93.10;;;;;;2052329;28;20041;-82
2020/12/08 00:18:19;;;;;;;10.93;7.00;;;3.70;93.10;;;;;;2063397;28;20036;-81
2020/12/08 00:19:20;;;;;;;12.43;8.05;;;3.70;93.10;;;;;;2060729;28;20035;-81
2020/12/08 00:20:21;;;;;;;13.38;7.65;;;3.70;93.00;;;;;;2061971;28;20026;-81
2020/12/08 00:21:22;;;;;;;11.45;7.38;;;3.70;93.10;;;;;;2048484;28;20109;-80
2020/12/08 00:22:23;;;;;;;13.27;8.23;;;3.70;93.00;;;;;;2050909;28;20509;-81
2020/12/08 00:23:23;;;;;;;12.40;7.88;;;3.70;93.10;;;;;;2058846;28;20062;-81
2020/12/08 00:24:25;;;;;;;12.07;7.75;;;3.70;93.00;;;;;;2059235;28;20553;-81
2020/12/08 00:25:26;;;;;;;13.98;8.65;;;3.70;93.10;;;;;;2059451;28;20022;-80
2020/12/08 00:26:26;;;;;;;12.70;8.13;;;3.70;93.40;;;;;;2055871;28;20458;-80
2020/12/08 00:27:27;;;;;;;13.90;8.48;;;3.70;93.10;;;;;;2056209;28;20181;-81
2020/12/08 00:28:28;;;;;;;12.98;8.02;;;3.70;93.10;;;;;;2063253;28;20058;-81
2020/12/08 00:29:28;;;;;;;12.10;7.88;;;3.70;93.10;;;;;;2047667;28;20039;-81
2020/12/08 00:30:30;;;;;;;13.52;8.35;;;3.70;93.10;;;;;;2046227;29;20051;-80
2020/12/08 00:31:30;;;;;;;13.27;8.52;;;3.70;93.10;;;;;;2055904;28;20027;-81
2020/12/08 00:32:31;;;;;;;14.02;8.48;;;3.70;93.10;;;;;;2064166;28;20027;-81
2020/12/08 00:33:32;;;;;;;13.40;8.27;;;3.70;93.10;;;;;;2055171;28;20027;-81
2020/12/08 00:34:32;;;;;;;13.52;8.23;;;3.70;93.10;;;;;;2055797;28;20037;-81
2020/12/08 00:35:33;;;;;;;11.45;7.32;;;3.70;93.10;;;;;;2058415;28;20042;-81
2020/12/08 00:36:34;;;;;;;13.25;7.90;;;3.70;93.10;;;;;;2050690;28;20024;-80
2020/12/08 00:37:35;;;;;;;13.32;8.57;;;3.70;93.10;;;;;;2048256;28;20212;-81
2020/12/08 00:38:35;;;;;;;13.95;8.38;;;3.70;93.10;;;;;;2053762;28;20388;-81
2020/12/08 00:39:36;;;;;;;12.05;7.90;;;3.70;93.10;;;;;;2047550;28;20414;-81
2020/12/08 00:40:37;;;;;;;12.90;8.35;;;3.70;93.10;;;;;;2043501;28;20090;-81
2020/12/08 00:41:37;;;;;;;11.73;7.72;;;3.70;93.30;;;;;;2063480;28;20030;-81
2020/12/08 00:42:39;;;;;;;12.82;8.23;;;3.70;93.00;;;;;;2062285;28;20563;-81
2020/12/08 00:43:40;;;;;;;12.65;7.88;;;3.70;93.00;;;;;;2047690;28;20031;-80
2020/12/08 00:44:40;;;;;;;12.73;8.02;;;3.70;93.00;;;;;;2047879;28;20185;-81
2020/12/08 00:45:41;;;;;;;12.05;7.63;;;3.70;93.00;;;;;;2046202;28;21746;-81
2020/12/08 00:46:46;;;;;;;13.27;8.38;;;3.70;93.00;;;;;;2056312;28;20031;-81
2020/12/08 00:47:47;;;;;;;12.82;8.15;;;3.70;93.00;;;;;;2063813;28;20031;-81
2020/12/08 00:48:48;;;;;;;12.02;7.47;;;3.80;93.00;;;;;;2063499;28;20081;-81
2020/12/08 00:49:48;;;;;;;11.85;7.63;;;3.80;93.00;;;;;;2063830;28;20042;-81
2020/12/08 00:50:49;;;;;;;13.30;7.93;;;3.80;93.00;;;;;;2062641;28;20046;-81
2020/12/08 00:51:55;;;;;;;12.27;7.95;;;3.70;93.00;;;;;;2053155;28;20027;-81
2020/12/08 00:52:56;;;;;;;13.02;7.93;;;3.70;93.00;;;;;;2056293;28;20027;-81
2020/12/08 00:53:57;;;;;;;12.70;8.20;;;3.70;93.00;;;;;;2062361;28;20117;-80
2020/12/08 00:54:57;;;;;;;12.55;7.47;;;3.70;93.00;;;;;;2062031;28;20030;-80
2020/12/08 00:56:06;;;;;;;14.23;8.68;;;3.70;93.00;;;;;;2067026;28;20027;-81
2020/12/08 00:57:07;;;;;;;11.88;7.82;;;3.70;93.00;;;;;;2048812;28;20024;-81
2020/12/08 00:58:08;;;;;;;14.23;7.85;;;3.70;93.00;;;;;;2056192;28;20127;-81
2020/12/08 00:59:13;;;;;;;12.35;7.95;;;3.70;93.00;;;;;;2045961;28;20020;-81
2020/12/08 01:00:13;;;;;;;13.13;8.05;;;3.70;93.00;;;;;;2048468;28;20031;-81
2020/12/08 01:01:14;;;;;;;14.45;8.68;;;3.60;93.00;;;;;;2056472;28;20184;-81
2020/12/08 01:02:18;;;;;;;15.13;8.75;;;3.70;93.00;;;;;;2047744;28;20032;-81
2020/12/08 01:03:19;;;;;;;15.20;9.02;;;3.60;93.00;;;;;;2051155;28;20023;-81
2020/12/08 01:04:20;;;;;;;14.23;8.70;;;3.60;93.00;;;;;;2063701;28;20069;-81
2020/12/08 01:05:22;;;;;;;16.42;10.07;;;3.60;93.00;;;;;;2056060;28;20105;-81
2020/12/08 01:06:23;;;;;;;14.32;9.27;;;3.60;93.00;;;;;;2047767;28;20058;-81
2020/12/08 01:07:23;;;;;;;16.83;10.20;;;3.60;93.00;;;;;;2055570;28;20043;-81
2020/12/08 01:08:24;;;;;;;18.63;10.63;;;3.50;93.00;;;;;;2060339;28;20070;-81
2020/12/08 01:09:24;;;;;;;17.08;10.05;;;3.50;93.00;;;;;;2048058;28;20512;-80
2020/12/08 01:10:25;;;;;;;15.93;9.52;;;3.50;93.00;;;;;;2047094;28;20019;-81
2020/12/08 01:11:26;;;;;;;17.25;10.50;;;3.50;93.00;;;;;;2058907;28;20041;-81
2020/12/08 01:12:26;;;;;;;15.25;9.20;;;3.50;93.00;;;;;;2055972;28;20027;-81
2020/12/08 01:13:27;;;;;;;16.50;9.50;;;3.50;93.10;;;;;;2055997;28;20073;-81
2020/12/08 01:14:27;;;;;;;13.00;9.10;;;3.50;93.30;;;;;;2060331;28;20069;-81
2020/12/08 01:15:28;;;;;;;15.48;9.30;;;3.50;93.10;;;;;;2063240;28;20174;-81
2020/12/08 01:16:29;;;;;;;14.50;8.93;;;3.50;93.10;;;;;;2056225;28;20114;-82
2020/12/08 01:17:32;;;;;;;16.50;9.07;;;3.40;93.00;;;;;;2056270;28;20033;-81
2020/12/08 01:18:33;;;;;;;14.60;8.55;;;3.40;93.10;;;;;;2060639;28;20539;-81
2020/12/08 01:19:34;;;;;;;13.88;8.43;;;3.40;93.10;;;;;;2058916;28;20220;-81
2020/12/08 01:20:34;;;;;;;13.10;8.30;;;3.40;93.10;;;;;;2060482;28;20679;-81
2020/12/08 01:21:35;;;;;;;14.20;8.90;;;3.40;93.10;;;;;;2049051;28;20454;-81
2020/12/08 01:22:36;;;;;;;12.85;8.35;;;3.40;93.10;;;;;;2060995;28;20142;-81
2020/12/08 01:23:36;;;;;;;14.88;8.57;;;3.40;93.10;;;;;;2048462;28;20055;-81
2020/12/08 01:24:37;;;;;;;12.88;7.82;;;3.40;93.10;;;;;;2045543;29;20054;-81
2020/12/08 01:25:38;;;;;;;13.38;8.57;;;3.40;93.10;;;;;;2041236;29;20071;-81
2020/12/08 01:26:38;;;;;;;12.57;7.70;;;3.40;93.10;;;;;;2048511;28;20181;-81
2020/12/08 01:27:39;;;;;;;13.98;8.65;;;3.40;93.40;;;;;;2053816;28;20041;-81
2020/12/08 01:28:39;;;;;;;14.48;8.52;;;3.40;93.10;;;;;;2065212;28;20034;-81
2020/12/08 01:29:40;;;;;;;12.85;7.75;;;3.40;93.10;;;;;;2055684;28;20516;-81
2020/12/08 01:30:41;;;;;;;14.15;8.35;;;3.40;93.10;;;;;;2040253;29;20032;-81
2020/12/08 01:31:41;;;;;;;15.18;9.13;;;3.40;93.10;;;;;;2043832;28;20032;-81
2020/12/08 01:32:42;;;;;;;14.55;8.35;;;3.40;93.10;;;;;;2054836;28;20453;-81
2020/12/08 01:33:43;;;;;;;14.80;8.85;;;3.40;93.10;;;;;;2065028;28;20034;-81
2020/12/08 01:34:44;;;;;;;14.00;8.32;;;3.40;93.40;;;;;;2049008;28;20027;-81
2020/12/08 01:35:44;;;;;;;13.68;8.80;;;3.30;93.10;;;;;;2056930;28;20030;-81
2020/12/08 01:36:45;;;;;;;13.45;8.68;;;3.40;93.10;;;;;;2059017;28;20182;-81
2020/12/08 01:37:46;;;;;;;13.57;8.90;;;3.30;93.10;;;;;;2062343;28;20037;-81
2020/12/08 01:38:47;;;;;;;15.15;9.90;;;3.30;93.10;;;;;;2059987;28;20082;-81
2020/12/08 01:39:48;;;;;;;15.40;9.45;;;3.30;93.10;;;;;;2057372;28;20133;-81
2020/12/08 01:40:53;;;;;;;16.67;9.80;;;3.30;93.10;;;;;;2069006;28;20033;-81
2020/12/08 01:41:55;;;;;;;14.60;8.75;;;3.30;93.10;;;;;;2063112;28;20030;-81
2020/12/08 01:42:57;;;;;;;14.32;9.20;;;3.30;93.10;;;;;;2057617;28;20027;-81
2020/12/08 01:43:58;;;;;;;13.98;8.50;;;3.30;93.10;;;;;;2064637;28;20065;-81
2020/12/08 01:44:58;;;;;;;15.00;9.07;;;3.30;93.10;;;;;;2058877;28;20030;-81
2020/12/08 01:46:00;;;;;;;14.00;9.05;;;3.30;93.10;;;;;;2065501;28;20051;-81
2020/12/08 01:47:01;;;;;;;13.75;8.60;;;3.30;93.10;;;;;;2065160;28;20036;-81
2020/12/08 01:48:02;;;;;;;14.82;8.88;;;3.30;93.10;;;;;;2065714;28;20026;-81
2020/12/08 01:49:03;;;;;;;13.50;8.45;;;3.20;93.10;;;;;;2057348;28;20074;-81
2020/12/08 01:50:03;;;;;;;15.20;9.40;;;3.20;93.10;;;;;;2049343;28;20035;-81
2020/12/08 01:51:04;;;;;;;14.02;8.88;;;3.20;93.10;;;;;;2049458;28;20042;-81
2020/12/08 01:52:05;;;;;;;13.20;8.52;;;3.20;93.10;;;;;;2049536;28;20027;-81
2020/12/08 01:53:06;;;;;;;16.58;9.32;;;3.20;93.10;;;;;;2058810;28;20362;-81
2020/12/08 01:54:06;;;;;;;15.60;8.85;;;3.20;93.10;;;;;;2064982;28;20045;-81
2020/12/08 01:55:07;;;;;;;15.68;9.02;;;3.20;93.10;;;;;;2052907;28;20026;-81
2020/12/08 01:56:09;;;;;;;13.82;8.77;;;3.20;93.10;;;;;;2062307;28;20037;-81
2020/12/08 01:57:10;;;;;;;14.40;8.77;;;3.20;93.10;;;;;;2054334;28;20050;-81
2020/12/08 01:58:20;;;;;;;13.25;8.65;;;3.10;93.10;;;;;;2060974;28;20436;-81
2020/12/08 01:59:21;;;;;;;12.88;8.23;;;3.10;93.10;;;;;;2065049;28;20113;-80
2020/12/08 02:00:22;;;;;;;11.93;7.95;;;3.20;93.20;;;;;;2062312;28;20041;-81
2020/12/08 02:01:22;;;;;;;14.02;7.88;;;3.10;93.10;;;;;;2056889;28;20113;-81
2020/12/08 02:02:24;;;;;;;13.52;8.02;;;3.10;93.10;;;;;;2056311;28;20035;-81
2020/12/08 02:03:26;;;;;;;13.65;8.15;;;3.10;93.20;;;;;;2065015;28;20135;-81
2020/12/08 02:04:27;;;;;;;14.15;8.30;;;3.10;93.20;;;;;;2063893;28;20030;-81
2020/12/08 02:05:27;;;;;;;13.60;7.82;;;3.10;93.20;;;;;;2057949;28;20039;-81
2020/12/08 02:06:28;;;;;;;12.27;8.10;;;3.10;93.20;;;;;;2064694;28;20118;-80
2020/12/08 02:07:29;;;;;;;12.75;7.53;;;3.10;93.20;;;;;;2063471;28;20045;-81
2020/12/08 02:08:33;;;;;;;13.48;8.23;;;3.00;93.20;;;;;;2068990;28;20034;-81
2020/12/08 02:09:36;;;;;;;11.85;7.85;;;3.10;93.20;;;;;;2061239;28;20034;-81
2020/12/08 02:10:37;;;;;;;11.70;7.72;;;3.00;93.20;;;;;;2053529;28;20034;-81
2020/12/08 02:11:38;;;;;;;12.82;8.07;;;3.10;93.20;;;;;;2062871;28;20023;-81
2020/12/08 02:12:38;;;;;;;12.98;7.88;;;3.00;93.20;;;;;;2064197;28;20042;-81
2020/12/08 02:13:39;;;;;;;13.07;8.18;;;3.00;93.20;;;;;;2053810;28;20118;-81
2020/12/08 02:14:40;;;;;;;14.18;8.88;;;3.00;93.20;;;;;;2064556;28;20574;-81
2020/12/08 02:15:40;;;;;;;13.75;8.45;;;3.00;93.20;;;;;;2064131;28;20604;-81
2020/12/08 02:16:41;;;;;;;15.13;9.05;;;3.00;93.20;;;;;;2062795;28;20517;-79
2020/12/08 02:17:42;;;;;;;13.57;8.63;;;3.00;93.20;;;;;;2067349;28;20027;-79
2020/12/08 02:18:42;;;;;;;15.35;9.73;;;3.00;93.20;;;;;;2067031;28;20034;-81
2020/12/08 02:19:44;;;;;;;13.65;8.13;;;3.00;93.20;;;;;;2067258;28;20045;-79
2020/12/08 02:20:45;;;;;;;14.40;8.95;;;3.00;93.20;;;;;;2074407;28;20070;-79
2020/12/08 02:21:46;;;;;;;13.40;8.70;;;3.00;93.50;;;;;;2083406;28;20030;-79
2020/12/08 02:22:46;;;;;;;12.02;7.93;;;3.00;93.20;;;;;;2080537;28;20022;-82
2020/12/08 02:23:50;;;;;;;13.02;8.15;;;3.00;93.20;;;;;;2062357;28;20037;-80
2020/12/08 02:24:51;;;;;;;12.48;8.35;;;3.00;93.20;;;;;;2059553;28;20129;-80
2020/12/08 02:25:59;;;;;;;13.98;8.50;;;3.00;93.20;;;;;;2059207;28;20051;-81
2020/12/08 02:27:00;;;;;;;14.00;8.38;;;3.00;93.20;;;;;;2059864;28;20011;-83
2020/12/08 02:28:01;;;;;;;14.43;8.68;;;3.00;93.20;;;;;;2060500;28;20010;-80
2020/12/08 02:29:02;;;;;;;14.90;9.30;;;3.00;93.20;;;;;;2063474;28;20011;-80
2020/12/08 02:30:04;;;;;;;14.68;9.07;;;3.00;93.10;;;;;;2069133;28;20017;-80
2020/12/08 02:31:04;;;;;;;15.98;9.52;;;3.00;93.10;;;;;;2063565;28;19998;-81
2020/12/08 02:32:05;;;;;;;14.80;9.20;;;3.00;93.40;;;;;;2057715;28;20043;-80
2020/12/08 02:33:05;;;;;;;16.00;9.60;;;3.00;93.20;;;;;;2045883;29;20703;-81
2020/12/08 02:34:07;;;;;;;16.90;9.98;;;3.00;93.20;;;;;;2049027;28;20035;-81
2020/12/08 02:35:08;;;;;;;17.17;11.27;;;3.00;93.20;;;;;;2045937;28;20031;-81
2020/12/08 02:36:09;;;;;;;17.33;10.93;;;3.00;93.20;;;;;;2056401;28;20035;-80
2020/12/08 02:37:10;;;;;;;16.48;10.05;;;3.00;93.20;;;;;;2054010;28;20416;-80
2020/12/08 02:38:10;;;;;;;16.90;9.77;;;3.00;93.20;;;;;;2048200;28;20066;-80
2020/12/08 02:39:11;;;;;;;15.55;9.52;;;3.00;93.20;;;;;;2052897;28;20023;-80
2020/12/08 02:40:12;;;;;;;14.90;8.75;;;2.90;93.10;;;;;;2057255;28;20077;-80
2020/12/08 02:41:12;;;;;;;13.40;8.60;;;3.00;93.20;;;;;;2052081;28;20046;-80
2020/12/08 02:42:15;;;;;;;14.43;8.90;;;2.90;93.10;;;;;;2057462;28;20125;-80
2020/12/08 02:43:15;;;;;;;13.30;8.45;;;2.90;93.10;;;;;;2070765;28;20092;-82
2020/12/08 02:44:16;;;;;;;14.25;9.20;;;2.90;93.10;;;;;;2060173;28;20054;-81
2020/12/08 02:45:17;;;;;;;15.07;8.65;;;2.90;93.10;;;;;;2048818;28;20130;-81
2020/12/08 02:46:18;;;;;;;14.10;9.00;;;2.90;93.10;;;;;;2044152;28;20087;-81
2020/12/08 02:47:19;;;;;;;13.18;8.32;;;2.90;93.10;;;;;;2067020;28;20026;-80
2020/12/08 02:48:20;;;;;;;13.85;8.68;;;2.90;93.10;;;;;;2065575;28;20045;-80
2020/12/08 02:49:20;;;;;;;12.85;7.90;;;2.90;93.20;;;;;;2063633;28;20021;-80
2020/12/08 02:50:21;;;;;;;12.43;7.90;;;2.80;93.10;;;;;;2069984;28;20030;-81
2020/12/08 02:51:21;;;;;;;13.05;8.32;;;2.80;93.20;;;;;;2064162;28;20049;-81
2020/12/08 02:52:22;;;;;;;13.20;7.97;;;2.80;93.20;;;;;;2063226;28;20042;-80
2020/12/08 02:53:23;;;;;;;12.95;7.53;;;2.80;93.20;;;;;;2051212;28;20039;-81
2020/12/08 02:54:24;;;;;;;13.32;8.02;;;2.80;93.20;;;;;;2053175;28;20034;-81
2020/12/08 02:55:24;;;;;;;14.57;8.50;;;2.80;93.20;;;;;;2056648;28;20030;-81
2020/12/08 02:56:25;;;;;;;13.82;8.38;;;2.80;93.20;;;;;;2068672;28;20029;-81
2020/12/08 02:57:26;;;;;;;13.27;7.93;;;2.80;93.20;;;;;;2056463;28;20631;-81
2020/12/08 02:58:27;;;;;;;12.15;8.25;;;2.80;93.20;;;;;;2055027;28;20503;-81
2020/12/08 02:59:28;;;;;;;13.77;7.97;;;2.80;93.20;;;;;;2038959;29;20038;-81
2020/12/08 03:00:29;;;;;;;12.50;7.80;;;2.80;93.30;;;;;;2040038;28;20422;-81
2020/12/08 03:01:30;;;;;;;12.10;7.47;;;2.80;93.20;;;;;;2064198;28;20518;-81
2020/12/08 03:02:31;;;;;;;13.05;7.72;;;2.80;93.20;;;;;;2061030;28;20038;-81
2020/12/08 03:03:31;;;;;;;13.50;7.68;;;2.80;93.30;;;;;;2061335;28;20473;-81
2020/12/08 03:04:32;;;;;;;15.88;8.95;;;2.80;93.40;;;;;;2060574;28;20118;-81
2020/12/08 03:05:33;;;;;;;13.70;7.97;;;2.80;93.20;;;;;;2050587;28;20494;-81
2020/12/08 03:06:33;;;;;;;14.10;8.80;;;2.80;93.30;;;;;;2056101;28;20494;-81
2020/12/08 03:07:34;;;;;;;13.38;8.23;;;2.80;93.30;;;;;;2063360;28;20034;-81
2020/12/08 03:08:35;;;;;;;14.18;8.60;;;2.80;93.30;;;;;;2062641;28;20061;-81
2020/12/08 03:09:35;;;;;;;13.68;8.10;;;2.80;93.30;;;;;;2064112;28;20482;-81
2020/12/08 03:10:36;;;;;;;13.05;8.07;;;2.80;93.30;;;;;;2064005;28;20512;-81
2020/12/08 03:11:36;;;;;;;13.82;7.82;;;2.80;93.30;;;;;;2064899;28;20126;-81
2020/12/08 03:12:37;;;;;;;15.02;8.75;;;2.70;93.30;;;;;;2062820;28;20041;-82
2020/12/08 03:13:38;;;;;;;13.30;8.38;;;2.70;93.30;;;;;;2056091;28;20424;-81
2020/12/08 03:14:38;;;;;;;13.40;8.32;;;2.70;93.30;;;;;;2054820;28;20544;-81
2020/12/08 03:15:39;;;;;;;11.48;7.20;;;2.70;93.30;;;;;;2055790;28;20031;-82
2020/12/08 03:16:40;;;;;;;12.85;8.35;;;2.70;93.30;;;;;;2048527;28;20035;-81
2020/12/08 03:17:40;;;;;;;14.23;7.82;;;2.70;93.30;;;;;;2040547;28;20034;-82
2020/12/08 03:18:41;;;;;;;13.95;8.52;;;2.70;93.30;;;;;;2048021;28;20126;-81
2020/12/08 03:19:42;;;;;;;12.55;7.88;;;2.70;93.30;;;;;;2047789;28;20031;-82
2020/12/08 03:20:43;;;;;;;13.60;8.40;;;2.70;93.30;;;;;;2039736;29;20046;-81
2020/12/08 03:21:43;;;;;;;11.52;7.07;;;2.70;93.30;;;;;;2048849;28;20525;-82
2020/12/08 03:22:44;;;;;;;12.13;7.72;;;2.70;93.30;;;;;;2064790;28;20083;-81
2020/12/08 03:23:45;;;;;;;11.93;7.57;;;2.70;93.30;;;;;;2064236;28;20038;-81
2020/12/08 03:24:48;;;;;;;12.48;7.38;;;2.70;93.30;;;;;;2056734;28;20027;-81
2020/12/08 03:25:49;;;;;;;12.20;7.00;;;2.70;93.30;;;;;;2060642;28;20073;-81
2020/12/08 03:26:49;;;;;;;12.80;7.55;;;2.70;93.60;;;;;;2055134;28;20093;-81
2020/12/08 03:27:50;;;;;;;11.63;6.72;;;2.70;93.30;;;;;;2053038;28;20034;-82
2020/12/08 03:28:51;;;;;;;12.18;7.05;;;2.70;93.30;;;;;;2056227;28;20130;-81
2020/12/08 03:29:51;;;;;;;11.60;6.68;;;2.70;93.30;;;;;;2048541;28;20429;-81
2020/12/08 03:30:52;;;;;;;11.23;7.03;;;2.70;93.30;;;;;;2049611;28;20508;-81
2020/12/08 03:31:53;;;;;;;12.80;7.85;;;2.70;93.30;;;;;;2060956;28;20023;-81
2020/12/08 03:32:54;;;;;;;12.98;7.95;;;2.70;93.30;;;;;;2055804;28;20050;-81
2020/12/08 03:33:55;;;;;;;12.48;7.50;;;2.70;93.30;;;;;;2055961;28;20065;-81
2020/12/08 03:34:55;;;;;;;12.07;7.50;;;2.70;93.30;;;;;;2056371;28;20485;-82
2020/12/08 03:35:56;;;;;;;11.32;7.18;;;2.60;93.30;;;;;;2058638;28;20448;-82
2020/12/08 03:36:57;;;;;;;15.45;8.70;;;2.60;93.30;;;;;;2052116;28;20476;-82
2020/12/08 03:37:57;;;;;;;13.82;8.43;;;2.60;93.30;;;;;;2047193;29;20062;-81
2020/12/08 03:38:58;;;;;;;12.93;7.82;;;2.60;93.30;;;;;;2056416;28;20042;-82
2020/12/08 03:39:59;;;;;;;10.88;7.53;;;2.60;93.30;;;;;;2060003;28;20066;-81
2020/12/08 03:40:59;;;;;;;10.98;7.22;;;2.60;93.30;;;;;;2057812;28;20144;-81
2020/12/08 03:42:02;;;;;;;11.57;6.60;;;2.60;93.30;;;;;;2056547;28;20501;-81
2020/12/08 03:43:03;;;;;;;12.15;7.30;;;2.60;93.30;;;;;;2062487;28;20034;-81
2020/12/08 03:44:03;;;;;;;11.55;7.38;;;2.60;93.30;;;;;;2064082;28;20050;-81
2020/12/08 03:45:04;;;;;;;13.18;7.00;;;2.60;93.30;;;;;;2046402;29;20043;-81
2020/12/08 03:46:05;;;;;;;10.40;6.40;;;2.60;93.40;;;;;;2055574;28;20445;-81
2020/12/08 03:47:05;;;;;;;13.65;7.10;;;2.60;93.40;;;;;;2053544;28;20040;-81
2020/12/08 03:48:06;;;;;;;11.48;7.15;;;2.50;93.30;;;;;;2041552;28;20573;-82
2020/12/08 03:49:07;;;;;;;12.73;7.90;;;2.60;93.40;;;;;;2055245;28;20565;-81
2020/12/08 03:50:08;;;;;;;12.30;7.72;;;2.50;93.30;;;;;;2048177;28;20110;-81
2020/12/08 03:51:12;;;;;;;13.88;8.20;;;2.60;93.40;;;;;;2060312;28;20556;-81
2020/12/08 03:52:13;;;;;;;13.27;7.45;;;2.60;93.40;;;;;;2056947;28;20026;-81
2020/12/08 03:53:13;;;;;;;11.02;7.05;;;2.50;93.40;;;;;;2052359;28;20031;-81
2020/12/08 03:54:14;;;;;;;12.07;7.00;;;2.50;93.40;;;;;;2048099;28;20085;-81
2020/12/08 03:55:15;;;;;;;11.27;6.97;;;2.50;93.40;;;;;;2044047;28;20078;-81
2020/12/08 03:56:17;;;;;;;13.23;7.22;;;2.50;93.40;;;;;;2055499;28;20046;-81
2020/12/08 03:57:18;;;;;;;13.00;8.27;;;2.50;93.40;;;;;;2055433;28;20042;-80
2020/12/08 03:58:18;;;;;;;14.00;8.23;;;2.50;93.30;;;;;;2055828;28;20125;-81
2020/12/08 03:59:19;;;;;;;12.68;7.35;;;2.50;93.30;;;;;;2062965;28;20362;-80
2020/12/08 04:00:20;;;;;;;13.40;7.63;;;2.50;93.40;;;;;;2057237;28;20027;-80
2020/12/08 04:01:21;;;;;;;13.45;7.85;;;2.50;93.30;;;;;;2063740;28;20034;-80
2020/12/08 04:02:22;;;;;;;15.40;8.43;;;2.50;93.30;;;;;;2062196;28;20411;-80
2020/12/08 04:03:23;;;;;;;14.00;8.25;;;2.50;93.30;;;;;;2055436;28;20038;-80
2020/12/08 04:04:24;;;;;;;12.73;8.05;;;2.50;93.30;;;;;;2047618;28;20031;-80
2020/12/08 04:05:25;;;;;;;15.65;9.18;;;2.50;93.30;;;;;;2048551;28;20039;-80
2020/12/08 04:06:25;;;;;;;14.63;8.70;;;2.50;93.30;;;;;;2048584;28;20401;-80
2020/12/08 04:07:26;;;;;;;15.23;9.38;;;2.50;93.30;;;;;;2050935;28;20038;-80
2020/12/08 04:08:27;;;;;;;16.10;9.57;;;2.50;93.30;;;;;;2054562;28;20596;-80
2020/12/08 04:09:27;;;;;;;13.25;8.73;;;2.50;93.30;;;;;;2044067;29;20039;-81
2020/12/08 04:10:28;;;;;;;13.60;8.50;;;2.50;93.30;;;;;;2050217;28;20023;-80
2020/12/08 04:11:29;;;;;;;14.07;9.13;;;2.60;93.30;;;;;;2062703;28;20484;-80
2020/12/08 04:12:30;;;;;;;12.55;7.93;;;2.50;93.30;;;;;;2048310;28;20038;-81
2020/12/08 04:13:30;;;;;;;12.93;8.10;;;2.50;93.20;;;;;;2062524;28;20054;-81
2020/12/08 04:14:31;;;;;;;12.98;8.10;;;2.50;93.20;;;;;;2064234;28;20093;-81
2020/12/08 04:15:31;;;;;;;14.35;8.05;;;2.50;93.20;;;;;;2057488;28;20019;-81
2020/12/08 04:16:33;;;;;;;13.57;8.40;;;2.50;93.20;;;;;;2056214;28;20045;-81
2020/12/08 04:17:33;;;;;;;15.27;9.75;;;2.50;93.20;;;;;;2055479;28;20023;-81
2020/12/08 04:18:34;;;;;;;13.70;8.77;;;2.50;93.20;;;;;;2061869;28;20448;-81
2020/12/08 04:19:35;;;;;;;12.65;8.52;;;2.50;93.20;;;;;;2051384;28;20034;-81
2020/12/08 04:20:35;;;;;;;13.27;8.75;;;2.50;93.20;;;;;;2055638;28;20113;-81
2020/12/08 04:21:36;;;;;;;12.77;8.40;;;2.50;93.20;;;;;;2060984;28;20038;-81
2020/12/08 04:22:36;;;;;;;14.23;9.25;;;2.50;93.20;;;;;;2050314;28;20446;-80
2020/12/08 04:23:37;;;;;;;13.13;8.63;;;2.50;93.30;;;;;;2038933;29;20484;-81
2020/12/08 04:24:38;;;;;;;11.82;8.10;;;2.50;93.30;;;;;;2046785;28;20378;-81
2020/12/08 04:25:39;;;;;;;12.95;8.25;;;2.50;93.30;;;;;;2070002;28;20447;-80
2020/12/08 04:26:45;;;;;;;14.77;9.07;;;2.50;93.30;;;;;;2068818;28;20484;-80
2020/12/08 04:27:45;;;;;;;14.05;8.40;;;2.50;93.30;;;;;;2066136;28;20030;-81
2020/12/08 04:28:47;;;;;;;13.48;8.45;;;2.50;93.20;;;;;;2054804;28;20560;-81
2020/12/08 04:29:47;;;;;;;12.45;8.18;;;2.50;93.20;;;;;;2048285;28;20037;-81
2020/12/08 04:30:48;;;;;;;13.82;8.40;;;2.50;93.20;;;;;;2050508;28;20041;-81
2020/12/08 04:31:51;;;;;;;13.35;8.15;;;2.50;93.20;;;;;;2055173;28;20412;-80
2020/12/08 04:32:52;;;;;;;12.18;8.07;;;2.50;93.20;;;;;;2061376;28;20035;-81
2020/12/08 04:33:53;;;;;;;14.02;8.43;;;2.50;93.20;;;;;;2064057;28;20063;-81
2020/12/08 04:34:53;;;;;;;11.82;7.97;;;2.40;93.20;;;;;;2054802;28;20492;-80
2020/12/08 04:35:54;;;;;;;11.80;8.15;;;2.40;93.20;;;;;;2039190;28;20059;-81
2020/12/08 04:36:58;;;;;;;12.60;8.10;;;2.40;93.20;;;;;;2047815;28;20043;-81
2020/12/08 04:37:59;;;;;;;13.73;9.10;;;2.40;93.20;;;;;;2061609;28;20034;-81
2020/12/08 04:38:59;;;;;;;13.65;8.88;;;2.40;93.20;;;;;;2061288;28;20037;-81
2020/12/08 04:40:00;;;;;;;12.80;8.77;;;2.40;93.30;;;;;;2062231;28;20062;-81
2020/12/08 04:41:01;;;;;;;11.60;8.18;;;2.40;93.30;;;;;;2061613;28;20046;-80
2020/12/08 04:42:01;;;;;;;13.85;8.55;;;2.40;93.30;;;;;;2047440;28;20061;-81
2020/12/08 04:43:05;;;;;;;13.82;8.70;;;2.40;93.30;;;;;;2047862;28;20564;-81
2020/12/08 04:44:05;;;;;;;12.65;8.00;;;2.40;93.30;;;;;;2063876;28;20027;-81
2020/12/08 04:45:06;;;;;;;12.65;8.20;;;2.40;93.30;;;;;;2063249;28;20054;-81
2020/12/08 04:46:08;;;;;;;14.20;9.23;;;2.30;93.20;;;;;;2051441;28;20046;-81
2020/12/08 04:47:20;;;;;;;14.43;8.70;;;2.30;93.20;;;;;;2055846;28;20027;-81
2020/12/08 04:48:21;;;;;;;12.32;8.52;;;2.30;93.30;;;;;;2063558;28;20033;-81
2020/12/08 04:49:25;;;;;;;12.55;8.30;;;2.30;93.20;;;;;;2058678;28;20026;-81
2020/12/08 04:50:26;;;;;;;13.73;8.75;;;2.30;93.30;;;;;;2056039;28;20027;-81
2020/12/08 04:51:26;;;;;;;13.73;8.82;;;2.20;93.20;;;;;;2055797;28;20054;-81
2020/12/08 04:52:27;;;;;;;11.65;7.80;;;2.30;93.30;;;;;;2042491;28;20160;-80
2020/12/08 04:53:28;;;;;;;15.38;9.00;;;2.20;93.30;;;;;;2045050;28;20039;-81
2020/12/08 04:54:28;;;;;;;12.60;8.27;;;2.20;93.30;;;;;;2057952;28;20070;-80
2020/12/08 04:55:29;;;;;;;12.52;7.82;;;2.20;93.30;;;;;;2061177;28;20034;-81
2020/12/08 04:56:30;;;;;;;13.13;8.98;;;2.20;93.30;;;;;;2058947;28;20110;-80
2020/12/08 04:57:31;;;;;;;13.38;8.90;;;2.20;93.40;;;;;;2062357;28;20038;-81
2020/12/08 04:58:32;;;;;;;12.65;8.65;;;2.20;93.30;;;;;;2054882;28;20035;-80
2020/12/08 04:59:32;;;;;;;13.80;9.27;;;2.20;93.60;;;;;;2052337;28;20069;-81
2020/12/08 05:00:40;;;;;;;16.23;9.55;;;2.20;93.40;;;;;;2055238;28;20027;-81
2020/12/08 05:01:42;;;;;;;14.90;9.10;;;2.20;93.40;;;;;;2060135;28;20030;-81
2020/12/08 05:02:49;;;;;;;13.75;9.25;;;2.30;93.40;;;;;;2064620;28;20522;-81
2020/12/08 05:04:00;;;;;;;12.25;8.50;;;2.30;93.40;;;;;;2064132;28;20092;-81
2020/12/08 05:05:01;;;;;;;13.57;9.20;;;2.30;93.40;;;;;;2058365;28;20042;-81
2020/12/08 05:06:04;;;;;;;12.85;8.73;;;2.30;93.30;;;;;;2062688;28;20407;-81
2020/12/08 05:07:07;;;;;;;12.95;7.85;;;2.30;93.30;;;;;;2065428;28;20113;-81
2020/12/08 05:08:11;;;;;;;11.73;8.18;;;2.30;93.30;;;;;;2055675;28;20463;-81
2020/12/08 05:09:11;;;;;;;13.20;8.80;;;2.40;93.30;;;;;;2049958;28;20106;-81
2020/12/08 05:10:25;;;;;;;13.98;8.70;;;2.40;93.30;;;;;;2043090;28;20481;-81
2020/12/08 05:11:27;;;;;;;12.93;8.63;;;2.40;93.20;;;;;;2052562;28;20094;-81
2020/12/08 05:12:28;;;;;;;13.30;8.45;;;2.40;93.20;;;;;;2053722;28;20023;-81
2020/12/08 05:13:28;;;;;;;13.95;9.13;;;2.40;93.20;;;;;;2057706;28;20035;-81
2020/12/08 05:14:40;;;;;;;12.90;8.70;;;2.40;93.20;;;;;;2064033;28;20420;-81
2020/12/08 05:15:40;;;;;;;12.05;8.07;;;2.50;93.20;;;;;;2062620;28;20126;-80
2020/12/08 05:16:41;;;;;;;14.10;8.80;;;2.40;93.10;;;;;;2057619;28;20034;-81
2020/12/08 05:17:43;;;;;;;17.98;9.98;;;2.50;93.10;;;;;;2048383;29;20027;-81
2020/12/08 05:18:44;;;;;;;15.43;9.85;;;2.50;93.10;;;;;;2057147;28;20047;-81